Time;durP1;ratioP1;P1;durP2;ratioP2;P2;SDS_P1;SDS_P2;PMS_P1;PMS_P2;Temp;Humidity;BMP_temperature;BMP_pressure;BME280_temperature;BME280_humidity;BME280_pressure;Samples;Min_cycle;Max_cycle;Signal;HPM_P1;HPM_P2
2021/09/06 00:00:42;;;;;;;12.00;7.10;;;12.70;98.00;;;;;;5057530;28;20048;-70
2021/09/06 00:03:07;;;;;;;11.35;6.97;;;12.60;98.00;;;;;;5059689;28;20025;-70
2021/09/06 00:05:33;;;;;;;11.23;7.43;;;12.60;98.00;;;;;;5056295;28;20040;-71
2021/09/06 00:07:59;;;;;;;13.07;7.30;;;12.60;98.00;;;;;;5054414;28;20035;-70
2021/09/06 00:10:33;;;;;;;11.50;6.72;;;12.60;98.00;;;;;;5053823;28;20158;-69
2021/09/06 00:13:01;;;;;;;11.32;6.60;;;12.60;98.00;;;;;;5053071;28;20361;-71
2021/09/06 00:15:27;;;;;;;11.25;7.00;;;12.60;98.00;;;;;;5053987;28;20019;-70
2021/09/06 00:17:53;;;;;;;12.02;7.57;;;12.50;98.00;;;;;;5053873;28;20036;-70
2021/09/06 00:20:20;;;;;;;11.07;7.32;;;12.50;98.00;;;;;;5054417;28;20028;-70
2021/09/06 00:22:45;;;;;;;10.15;6.40;;;12.50;98.00;;;;;;5054199;28;20097;-71
2021/09/06 00:25:11;;;;;;;13.05;7.22;;;12.50;98.00;;;;;;5053106;28;20116;-70
2021/09/06 00:27:37;;;;;;;11.85;7.43;;;12.50;98.00;;;;;;5048549;28;21572;-70
2021/09/06 00:30:04;;;;;;;11.80;6.85;;;12.50;98.00;;;;;;5053773;28;20139;-69
2021/09/06 00:32:29;;;;;;;11.90;6.75;;;12.40;98.00;;;;;;5053260;28;20330;-71
2021/09/06 00:34:55;;;;;;;13.65;7.28;;;12.40;98.00;;;;;;5054694;28;20021;-72
2021/09/06 00:37:20;;;;;;;12.88;7.93;;;12.30;98.00;;;;;;5055140;28;20039;-71
2021/09/06 00:39:49;;;;;;;12.55;7.05;;;12.30;98.00;;;;;;5044349;28;20043;-70
2021/09/06 00:42:15;;;;;;;12.85;7.57;;;12.30;98.00;;;;;;5045460;28;20029;-70
2021/09/06 00:44:41;;;;;;;12.18;7.95;;;12.20;98.00;;;;;;5054358;28;20634;-70
2021/09/06 00:47:07;;;;;;;12.27;7.60;;;12.20;98.00;;;;;;5050713;28;20056;-71
2021/09/06 00:49:32;;;;;;;11.00;7.10;;;12.10;98.00;;;;;;5051094;28;20063;-70
2021/09/06 00:51:58;;;;;;;11.00;7.22;;;12.10;98.00;;;;;;5040773;28;20602;-70
2021/09/06 00:54:24;;;;;;;11.05;7.05;;;12.00;98.00;;;;;;5053252;28;20064;-70
2021/09/06 00:56:51;;;;;;;13.20;7.18;;;12.00;98.00;;;;;;5055318;28;20361;-70
2021/09/06 00:59:17;;;;;;;12.00;6.90;;;12.10;98.00;;;;;;5052577;28;20025;-70
2021/09/06 01:01:42;;;;;;;12.18;7.18;;;12.10;98.00;;;;;;5050942;28;20150;-70
2021/09/06 01:04:08;;;;;;;12.18;7.75;;;12.10;98.00;;;;;;5043469;28;20033;-71
2021/09/06 01:06:34;;;;;;;14.77;7.75;;;12.10;98.00;;;;;;5044614;28;20028;-69
2021/09/06 01:08:59;;;;;;;12.07;7.72;;;12.10;98.00;;;;;;5051919;28;20152;-71
2021/09/06 01:11:25;;;;;;;12.35;7.63;;;12.20;98.00;;;;;;5053117;28;20304;-71
2021/09/06 01:13:51;;;;;;;11.63;7.10;;;12.10;98.00;;;;;;5054605;28;20438;-71
2021/09/06 01:16:19;;;;;;;11.45;7.60;;;12.10;98.00;;;;;;5050305;28;20033;-71
2021/09/06 01:18:44;;;;;;;11.40;7.82;;;12.10;98.00;;;;;;5054886;28;20043;-71
2021/09/06 01:21:11;;;;;;;13.75;8.52;;;12.00;98.00;;;;;;5050407;28;20051;-71
2021/09/06 01:23:37;;;;;;;10.98;7.22;;;12.10;98.00;;;;;;5065446;28;20035;-70
2021/09/06 01:26:03;;;;;;;12.38;7.45;;;12.10;98.00;;;;;;5054778;28;20029;-70
2021/09/06 01:28:29;;;;;;;12.02;7.75;;;12.10;98.00;;;;;;5072339;28;20021;-71
2021/09/06 01:30:55;;;;;;;12.85;7.63;;;12.10;98.00;;;;;;5052621;28;20028;-70
2021/09/06 01:33:21;;;;;;;13.65;7.47;;;12.10;98.00;;;;;;5045048;28;20025;-71
2021/09/06 01:35:46;;;;;;;12.38;7.15;;;12.10;98.00;;;;;;5044210;28;20053;-71
2021/09/06 01:38:12;;;;;;;13.45;7.90;;;12.10;98.00;;;;;;5040716;28;20028;-71
2021/09/06 01:40:38;;;;;;;12.40;7.95;;;12.10;98.00;;;;;;5049992;28;20021;-70
2021/09/06 01:43:04;;;;;;;13.18;8.25;;;12.10;98.00;;;;;;5040506;28;20450;-71
2021/09/06 01:45:29;;;;;;;12.50;7.70;;;12.00;98.00;;;;;;5048617;28;20033;-71
2021/09/06 01:47:55;;;;;;;11.10;7.47;;;12.10;98.00;;;;;;5052718;28;20103;-71
2021/09/06 01:50:24;;;;;;;15.38;8.25;;;12.00;98.00;;;;;;5056975;28;20024;-71
2021/09/06 01:52:50;;;;;;;12.98;8.02;;;12.00;98.00;;;;;;5057058;28;20017;-71
2021/09/06 01:55:16;;;;;;;10.57;7.20;;;12.00;98.00;;;;;;5050123;28;20025;-71
2021/09/06 01:57:44;;;;;;;10.98;7.40;;;11.90;98.00;;;;;;5043727;28;20033;-71
2021/09/06 02:00:18;;;;;;;11.57;7.85;;;11.90;98.00;;;;;;5057912;28;20029;-71
2021/09/06 02:02:44;;;;;;;12.32;7.65;;;11.80;98.00;;;;;;5039769;28;20418;-71
2021/09/06 02:05:10;;;;;;;15.20;8.50;;;11.80;98.00;;;;;;5058168;28;20028;-71
2021/09/06 02:07:36;;;;;;;16.23;8.50;;;11.80;98.00;;;;;;5056656;28;20029;-70
2021/09/06 02:10:02;;;;;;;12.35;8.13;;;11.80;98.00;;;;;;5060339;28;20025;-70
2021/09/06 02:12:27;;;;;;;14.20;8.00;;;11.80;98.00;;;;;;5048665;28;20057;-71
2021/09/06 02:14:56;;;;;;;16.38;9.50;;;11.80;98.00;;;;;;5052110;28;20021;-70
2021/09/06 02:17:21;;;;;;;14.70;8.88;;;11.90;98.00;;;;;;5057804;28;20086;-70
2021/09/06 02:19:47;;;;;;;18.30;8.45;;;11.80;98.00;;;;;;5058677;28;20021;-70
2021/09/06 02:22:12;;;;;;;12.75;8.25;;;11.90;98.00;;;;;;5048350;28;20033;-72
2021/09/06 02:24:38;;;;;;;12.40;7.97;;;11.90;98.00;;;;;;5055455;28;20065;-71
2021/09/06 02:27:04;;;;;;;13.77;7.70;;;11.90;98.00;;;;;;5056432;28;20029;-71
2021/09/06 02:29:29;;;;;;;13.00;7.47;;;11.90;98.00;;;;;;5050773;28;20028;-71
2021/09/06 02:31:55;;;;;;;12.05;7.97;;;11.90;98.00;;;;;;5045691;28;20067;-71
2021/09/06 02:34:21;;;;;;;12.45;8.27;;;11.90;98.00;;;;;;5055619;28;20028;-71
2021/09/06 02:36:46;;;;;;;12.35;7.90;;;11.90;98.00;;;;;;5052499;28;20396;-71
2021/09/06 02:39:12;;;;;;;13.38;8.50;;;11.90;98.00;;;;;;5052759;28;20414;-71
2021/09/06 02:41:38;;;;;;;12.32;7.90;;;11.90;98.00;;;;;;5048215;28;20437;-71
2021/09/06 02:44:04;;;;;;;12.77;8.30;;;11.90;98.00;;;;;;5052470;28;20034;-71
2021/09/06 02:46:30;;;;;;;13.13;8.10;;;11.90;98.00;;;;;;5055549;28;20036;-71
2021/09/06 02:48:55;;;;;;;13.18;7.80;;;11.80;98.00;;;;;;5046628;28;20028;-71
2021/09/06 02:51:21;;;;;;;13.80;8.13;;;11.70;98.00;;;;;;5038972;28;20056;-71
2021/09/06 02:53:46;;;;;;;13.07;8.15;;;11.70;98.00;;;;;;5030023;28;20026;-71
2021/09/06 02:56:12;;;;;;;14.18;8.52;;;11.60;98.00;;;;;;5030706;28;20037;-70
2021/09/06 02:58:38;;;;;;;20.77;8.65;;;11.60;98.00;;;;;;5035627;28;20021;-71
2021/09/06 03:01:03;;;;;;;13.07;7.00;;;11.60;98.00;;;;;;5033587;28;20091;-71
2021/09/06 03:03:29;;;;;;;13.77;8.43;;;11.50;98.00;;;;;;5035731;28;20406;-71
2021/09/06 03:05:56;;;;;;;15.18;8.13;;;11.50;98.00;;;;;;5036173;28;20067;-71
2021/09/06 03:08:22;;;;;;;13.25;7.80;;;11.50;98.00;;;;;;5034671;28;20081;-71
2021/09/06 03:10:47;;;;;;;13.45;8.20;;;11.50;98.00;;;;;;5026942;28;20403;-71
2021/09/06 03:13:13;;;;;;;12.00;8.07;;;11.50;98.00;;;;;;5033195;28;20100;-71
2021/09/06 03:15:38;;;;;;;13.38;7.82;;;11.60;98.00;;;;;;5035289;28;20026;-70
2021/09/06 03:18:04;;;;;;;12.93;8.02;;;11.70;98.00;;;;;;5035667;28;20124;-71
2021/09/06 03:20:30;;;;;;;12.65;8.50;;;11.70;98.00;;;;;;5036381;28;20104;-70
2021/09/06 03:22:55;;;;;;;12.18;7.53;;;11.70;98.00;;;;;;5033055;28;20030;-71
2021/09/06 03:25:21;;;;;;;13.40;8.20;;;11.70;98.00;;;;;;5034944;28;20025;-70
2021/09/06 03:27:47;;;;;;;12.48;7.05;;;11.70;98.00;;;;;;5036465;28;20030;-70
2021/09/06 03:30:13;;;;;;;11.63;7.28;;;11.70;98.00;;;;;;5034980;28;20025;-70
2021/09/06 03:32:38;;;;;;;13.60;7.40;;;11.70;98.00;;;;;;5036786;28;20315;-71
2021/09/06 03:35:04;;;;;;;14.45;8.73;;;11.70;98.00;;;;;;5033247;28;20029;-70
2021/09/06 03:37:30;;;;;;;13.07;8.38;;;11.60;98.00;;;;;;5035158;28;20029;-71
2021/09/06 03:39:55;;;;;;;13.88;8.68;;;11.60;98.00;;;;;;5028605;28;20022;-71
2021/09/06 03:42:21;;;;;;;13.73;8.07;;;11.60;98.00;;;;;;5035911;28;20322;-71
2021/09/06 03:44:47;;;;;;;14.15;8.30;;;11.60;98.00;;;;;;5028596;28;20026;-70
2021/09/06 03:47:12;;;;;;;16.55;8.38;;;11.60;98.00;;;;;;5033767;28;20037;-71
2021/09/06 03:49:38;;;;;;;15.27;9.15;;;11.70;98.00;;;;;;5035275;28;20022;-70
2021/09/06 03:52:04;;;;;;;13.25;8.52;;;11.70;98.00;;;;;;5033879;28;20056;-71
2021/09/06 03:54:29;;;;;;;16.63;8.60;;;11.70;98.00;;;;;;5033676;28;20052;-71
2021/09/06 03:56:55;;;;;;;12.55;8.45;;;11.60;98.00;;;;;;5036067;28;20036;-70
2021/09/06 03:59:20;;;;;;;11.80;8.07;;;11.60;98.00;;;;;;5033657;28;20025;-71
2021/09/06 04:01:47;;;;;;;14.15;8.65;;;11.60;98.00;;;;;;5035567;28;20411;-71
2021/09/06 04:04:12;;;;;;;14.60;8.20;;;11.40;98.00;;;;;;5035082;28;20031;-70
2021/09/06 04:06:38;;;;;;;14.13;8.80;;;11.10;98.00;;;;;;5033818;28;20438;-71
2021/09/06 04:09:04;;;;;;;14.65;8.32;;;11.00;98.00;;;;;;5033127;28;20097;-71
2021/09/06 04:11:29;;;;;;;15.85;7.90;;;10.80;98.00;;;;;;5035816;28;20053;-70
2021/09/06 04:13:55;;;;;;;13.63;8.38;;;10.80;98.00;;;;;;5031055;28;20017;-71
2021/09/06 04:16:21;;;;;;;15.40;8.98;;;10.70;98.00;;;;;;5034831;28;20061;-71
2021/09/06 04:18:46;;;;;;;14.55;8.40;;;10.60;98.00;;;;;;5029234;28;20095;-71
2021/09/06 04:21:12;;;;;;;14.80;8.93;;;10.60;98.00;;;;;;5034337;28;20116;-71
2021/09/06 04:23:39;;;;;;;14.38;9.15;;;10.60;98.00;;;;;;5033522;28;20032;-71
2021/09/06 04:26:05;;;;;;;14.40;8.57;;;10.70;98.00;;;;;;5033253;28;20017;-70
2021/09/06 04:28:31;;;;;;;13.20;8.52;;;10.80;98.00;;;;;;5035432;28;20025;-70
2021/09/06 04:30:56;;;;;;;17.38;9.30;;;10.90;98.00;;;;;;5034073;28;20288;-71
2021/09/06 04:33:25;;;;;;;13.95;8.32;;;10.90;98.00;;;;;;5035201;28;20371;-71
2021/09/06 04:35:52;;;;;;;15.93;9.35;;;11.10;98.00;;;;;;5041219;28;20401;-70
2021/09/06 04:38:20;;;;;;;17.42;9.10;;;11.10;98.00;;;;;;5030909;28;20318;-71
2021/09/06 04:40:46;;;;;;;13.27;8.57;;;11.10;98.00;;;;;;5030357;28;20029;-71
2021/09/06 04:43:12;;;;;;;15.73;9.30;;;11.10;98.00;;;;;;5031035;28;20152;-71
2021/09/06 04:45:38;;;;;;;15.20;8.55;;;11.10;98.00;;;;;;5031311;28;20109;-71
2021/09/06 04:48:04;;;;;;;14.60;8.68;;;11.20;98.00;;;;;;5034363;28;20130;-71
2021/09/06 04:50:29;;;;;;;14.38;8.70;;;11.30;98.00;;;;;;5033892;28;20024;-71
2021/09/06 04:52:55;;;;;;;14.23;8.82;;;11.30;98.00;;;;;;5034488;28;20033;-71
2021/09/06 04:55:22;;;;;;;12.82;8.65;;;11.30;98.00;;;;;;5032748;28;20060;-71
2021/09/06 04:57:47;;;;;;;12.30;8.60;;;11.30;98.00;;;;;;5034829;28;20022;-71
2021/09/06 05:00:13;;;;;;;17.23;9.43;;;11.20;98.00;;;;;;5027361;28;20028;-71
2021/09/06 05:02:39;;;;;;;15.68;8.90;;;11.10;98.00;;;;;;5033907;28;20122;-71
2021/09/06 05:05:05;;;;;;;14.15;8.82;;;11.10;98.00;;;;;;5029107;28;20026;-71
2021/09/06 05:07:30;;;;;;;13.27;8.15;;;11.20;98.00;;;;;;5032042;28;20128;-70
2021/09/06 05:09:58;;;;;;;14.43;8.55;;;11.20;98.00;;;;;;5033173;28;20108;-69
2021/09/06 05:12:24;;;;;;;13.13;8.43;;;11.20;98.00;;;;;;5034586;28;20029;-69
2021/09/06 05:14:49;;;;;;;14.38;8.73;;;11.20;98.00;;;;;;5035189;28;20369;-69
2021/09/06 05:17:15;;;;;;;14.18;8.70;;;11.30;98.00;;;;;;5024042;28;20438;-71
2021/09/06 05:19:41;;;;;;;13.05;7.88;;;11.30;98.00;;;;;;5023905;28;20449;-71
2021/09/06 05:22:07;;;;;;;13.00;7.95;;;11.40;98.00;;;;;;5037094;28;20387;-71
2021/09/06 05:24:33;;;;;;;13.52;8.02;;;11.40;98.00;;;;;;5037796;28;20060;-70
2021/09/06 05:26:59;;;;;;;15.25;8.60;;;11.40;98.00;;;;;;5039525;28;20033;-71
2021/09/06 05:29:24;;;;;;;13.65;8.13;;;11.40;98.00;;;;;;5038883;28;20021;-70
2021/09/06 05:31:50;;;;;;;11.13;8.05;;;11.40;98.00;;;;;;5021167;28;20327;-70
2021/09/06 05:34:15;;;;;;;11.80;7.65;;;11.40;98.00;;;;;;5029961;28;20025;-70
2021/09/06 05:36:41;;;;;;;15.45;8.23;;;11.40;98.00;;;;;;5038640;28;20049;-70
2021/09/06 05:39:07;;;;;;;12.77;8.40;;;11.50;98.00;;;;;;5033964;28;20087;-71
2021/09/06 05:41:32;;;;;;;12.80;7.72;;;11.50;98.00;;;;;;5038162;28;20055;-70
2021/09/06 05:43:58;;;;;;;16.08;8.45;;;11.50;98.00;;;;;;5036607;28;20429;-70
2021/09/06 05:46:24;;;;;;;12.23;7.90;;;11.60;98.00;;;;;;5036835;28;20034;-70
2021/09/06 05:48:49;;;;;;;13.13;8.25;;;11.70;98.00;;;;;;5038260;28;20031;-71
2021/09/06 05:51:15;;;;;;;14.85;8.02;;;11.90;98.00;;;;;;5037972;28;20031;-70
2021/09/06 05:53:40;;;;;;;13.48;8.85;;;11.90;98.00;;;;;;5036836;28;20032;-71
2021/09/06 05:56:06;;;;;;;13.23;8.18;;;12.10;98.00;;;;;;5037630;28;20120;-69
2021/09/06 05:58:33;;;;;;;12.27;8.30;;;12.20;98.00;;;;;;5037467;28;20029;-70
2021/09/06 06:00:59;;;;;;;13.02;8.63;;;12.40;98.00;;;;;;5037548;28;20029;-71
2021/09/06 06:03:24;;;;;;;13.77;9.50;;;12.50;98.00;;;;;;5039930;28;20084;-71
2021/09/06 06:05:50;;;;;;;11.65;8.02;;;12.60;98.00;;;;;;5038184;28;20087;-71
2021/09/06 06:08:16;;;;;;;12.18;7.50;;;12.70;98.00;;;;;;5036681;28;20033;-71
2021/09/06 06:10:41;;;;;;;12.52;7.90;;;12.90;98.00;;;;;;5036924;28;20045;-70
2021/09/06 06:13:07;;;;;;;12.75;7.38;;;13.40;98.00;;;;;;5038026;28;20022;-71
2021/09/06 06:15:33;;;;;;;13.82;7.18;;;14.10;98.00;;;;;;5033677;28;20356;-70
2021/09/06 06:17:58;;;;;;;12.02;7.47;;;15.10;98.00;;;;;;5037579;28;20032;-70
2021/09/06 06:20:24;;;;;;;11.15;6.88;;;15.90;97.30;;;;;;5037940;28;20101;-71
2021/09/06 06:22:50;;;;;;;11.32;6.53;;;16.60;93.70;;;;;;5036919;28;20030;-71
2021/09/06 06:25:15;;;;;;;9.80;6.32;;;17.00;91.40;;;;;;5035849;28;20026;-71
2021/09/06 06:27:41;;;;;;;9.65;7.10;;;16.70;91.40;;;;;;5037639;28;20059;-71
2021/09/06 06:30:07;;;;;;;11.27;7.30;;;16.10;92.70;;;;;;5036623;28;20029;-71
2021/09/06 06:32:35;;;;;;;14.13;7.97;;;15.70;93.40;;;;;;5038187;28;20314;-71
2021/09/06 06:35:01;;;;;;;13.30;8.55;;;15.40;94.40;;;;;;5036022;28;20025;-71
2021/09/06 06:37:27;;;;;;;17.40;8.07;;;15.20;94.90;;;;;;5036214;28;20037;-71
2021/09/06 06:39:52;;;;;;;16.58;8.13;;;15.00;95.60;;;;;;5035214;28;20029;-71
2021/09/06 06:42:18;;;;;;;13.07;7.68;;;15.00;95.60;;;;;;5035590;28;20021;-71
2021/09/06 06:44:44;;;;;;;11.48;7.53;;;15.00;95.70;;;;;;5036490;28;20120;-71
2021/09/06 06:47:09;;;;;;;15.00;7.35;;;15.20;95.80;;;;;;5036787;28;20034;-71
2021/09/06 06:49:35;;;;;;;10.95;6.78;;;15.30;95.80;;;;;;5037045;28;20036;-71
2021/09/06 06:52:01;;;;;;;11.57;7.60;;;15.40;95.40;;;;;;5036958;28;20025;-71
2021/09/06 06:54:27;;;;;;;13.07;8.05;;;15.50;95.00;;;;;;5036371;28;20021;-71
2021/09/06 06:56:52;;;;;;;10.85;7.28;;;15.70;94.70;;;;;;5036435;28;20033;-71
2021/09/06 06:59:18;;;;;;;11.27;7.47;;;15.70;94.50;;;;;;5033396;28;20368;-70
2021/09/06 07:01:44;;;;;;;10.70;7.38;;;15.90;94.00;;;;;;5030944;28;20049;-71
2021/09/06 07:04:09;;;;;;;14.15;8.13;;;16.00;93.90;;;;;;5031479;28;20108;-71
2021/09/06 07:06:35;;;;;;;16.25;8.10;;;16.10;93.70;;;;;;5033362;28;20418;-71
2021/09/06 07:09:01;;;;;;;11.95;7.72;;;16.20;94.00;;;;;;5032432;28;20362;-71
2021/09/06 07:11:27;;;;;;;13.70;7.22;;;16.30;93.60;;;;;;5031055;28;20022;-71
2021/09/06 07:13:52;;;;;;;15.80;8.23;;;16.30;93.20;;;;;;5033152;28;20021;-71
2021/09/06 07:16:18;;;;;;;16.40;7.57;;;16.30;93.50;;;;;;5032006;28;20029;-71
2021/09/06 07:18:44;;;;;;;12.63;8.20;;;16.30;94.10;;;;;;5031819;28;20048;-71
2021/09/06 07:21:09;;;;;;;12.35;7.65;;;16.40;94.50;;;;;;5031289;28;20022;-71
2021/09/06 07:23:35;;;;;;;14.90;8.35;;;16.40;94.80;;;;;;5031102;28;20445;-71
2021/09/06 07:26:00;;;;;;;15.20;8.27;;;16.40;95.00;;;;;;5063878;28;20354;-71
2021/09/06 07:28:26;;;;;;;12.68;7.68;;;16.40;95.40;;;;;;5030187;28;20052;-71
2021/09/06 07:30:52;;;;;;;12.48;7.80;;;16.40;95.00;;;;;;5033844;28;20030;-71
2021/09/06 07:33:17;;;;;;;12.30;7.82;;;16.50;95.10;;;;;;5031885;28;20135;-71
2021/09/06 07:35:43;;;;;;;12.43;7.32;;;16.60;94.70;;;;;;5034850;28;20049;-71
2021/09/06 07:38:09;;;;;;;10.77;6.97;;;16.80;93.90;;;;;;5034275;28;20059;-71
2021/09/06 07:40:34;;;;;;;11.35;7.65;;;16.90;93.40;;;;;;5034965;28;20042;-71
2021/09/06 07:43:00;;;;;;;14.18;7.18;;;17.00;93.40;;;;;;5033673;28;20025;-71
2021/09/06 07:45:27;;;;;;;12.25;7.95;;;17.10;93.50;;;;;;5035358;28;20315;-71
2021/09/06 07:47:53;;;;;;;9.60;6.57;;;17.30;93.50;;;;;;5036241;28;20017;-71
2021/09/06 07:50:21;;;;;;;15.32;7.57;;;17.50;93.30;;;;;;5036358;28;20415;-71
2021/09/06 07:52:47;;;;;;;12.88;7.53;;;17.70;92.40;;;;;;5036692;28;20322;-71
2021/09/06 07:55:13;;;;;;;11.70;7.25;;;17.70;91.60;;;;;;5034763;28;20101;-71
2021/09/06 07:57:38;;;;;;;12.30;7.10;;;18.00;91.60;;;;;;5035199;28;20084;-71
2021/09/06 08:00:05;;;;;;;14.80;8.20;;;18.00;91.80;;;;;;5034486;28;20108;-71
2021/09/06 08:02:48;;;;;;;12.70;7.95;;;18.10;91.90;;;;;;5035030;28;20028;-71
2021/09/06 08:05:17;;;;;;;11.68;7.28;;;18.50;91.20;;;;;;5036414;28;20033;-71
2021/09/06 08:07:43;;;;;;;11.70;6.05;;;19.50;88.40;;;;;;5035558;28;20338;-71
2021/09/06 08:10:09;;;;;;;11.57;6.55;;;21.00;84.00;;;;;;5035116;28;20029;-71
2021/09/06 08:12:42;;;;;;;10.27;6.43;;;22.20;80.30;;;;;;5035954;28;20025;-72
2021/09/06 08:15:09;;;;;;;9.47;5.83;;;23.90;75.50;;;;;;5035609;28;20038;-72
2021/09/06 08:17:35;;;;;;;8.57;5.85;;;24.60;73.90;;;;;;5036109;28;20041;-71
2021/09/06 08:20:07;;;;;;;9.88;5.95;;;25.10;71.90;;;;;;5035676;28;20067;-72
2021/09/06 08:22:39;;;;;;;9.73;5.47;;;25.00;72.90;;;;;;5036277;28;20025;-71
2021/09/06 08:25:07;;;;;;;9.10;5.95;;;24.90;72.80;;;;;;5034747;28;20076;-71
2021/09/06 08:27:36;;;;;;;9.32;5.63;;;24.90;73.30;;;;;;5035819;28;20083;-71
2021/09/06 08:30:03;;;;;;;11.18;6.15;;;24.80;74.60;;;;;;5035926;28;20411;-71
2021/09/06 08:32:28;;;;;;;9.60;5.93;;;25.10;73.10;;;;;;5035901;28;20030;-71
2021/09/06 08:34:54;;;;;;;15.55;5.95;;;25.30;72.90;;;;;;5035472;28;20075;-71
2021/09/06 08:37:21;;;;;;;9.98;6.10;;;25.60;71.90;;;;;;5035689;28;20113;-71
2021/09/06 08:39:46;;;;;;;8.00;5.57;;;26.10;71.30;;;;;;5034218;28;20039;-71
2021/09/06 08:42:14;;;;;;;7.75;5.25;;;26.80;68.40;;;;;;5035506;28;20025;-71
2021/09/06 08:44:41;;;;;;;12.48;5.72;;;27.30;68.40;;;;;;5035651;28;20100;-71
2021/09/06 08:47:06;;;;;;;8.25;5.35;;;27.40;63.30;;;;;;5035346;28;20083;-72
2021/09/06 08:49:32;;;;;;;9.45;5.53;;;27.90;62.30;;;;;;5035983;28;20053;-72
2021/09/06 08:51:59;;;;;;;9.05;5.20;;;28.30;60.90;;;;;;5035364;28;20026;-71
2021/09/06 08:54:24;;;;;;;8.05;5.15;;;28.60;60.90;;;;;;5038810;28;20068;-71
2021/09/06 08:56:50;;;;;;;7.63;4.88;;;28.70;61.50;;;;;;5039657;28;20426;-72
2021/09/06 08:59:19;;;;;;;9.57;5.47;;;28.00;66.80;;;;;;5039684;28;20033;-72
2021/09/06 09:01:53;;;;;;;8.57;5.05;;;27.50;65.70;;;;;;5039381;28;20460;-71
2021/09/06 09:04:25;;;;;;;9.98;5.70;;;27.10;62.40;;;;;;5039773;28;20148;-71
2021/09/06 09:06:56;;;;;;;9.98;5.45;;;27.20;58.90;;;;;;5039548;28;20037;-71
2021/09/06 09:09:24;;;;;;;10.00;5.72;;;27.60;59.00;;;;;;5037721;28;20418;-71
2021/09/06 09:12:20;;;;;;;8.18;5.25;;;28.50;58.40;;;;;;5039228;28;20029;-71
2021/09/06 09:14:49;;;;;;;9.23;5.57;;;28.60;57.40;;;;;;5039063;28;20434;-71
2021/09/06 09:17:15;;;;;;;8.77;5.00;;;28.60;56.70;;;;;;5039643;28;20498;-71
2021/09/06 09:19:42;;;;;;;8.48;5.20;;;28.20;56.40;;;;;;5038151;28;20116;-71
2021/09/06 09:22:11;;;;;;;7.28;4.75;;;28.70;56.80;;;;;;5039437;28;20025;-71
2021/09/06 09:24:37;;;;;;;12.88;6.10;;;29.70;56.00;;;;;;5037170;28;20384;-72
2021/09/06 09:27:16;;;;;;;8.57;5.43;;;30.10;52.60;;;;;;5038995;28;20083;-71
2021/09/06 09:29:44;;;;;;;7.40;5.22;;;29.90;54.90;;;;;;5039245;28;20314;-72
2021/09/06 09:32:12;;;;;;;8.32;5.10;;;29.20;54.30;;;;;;5037704;28;20017;-71
2021/09/06 09:34:40;;;;;;;8.90;4.90;;;29.60;54.00;;;;;;5038882;28;20661;-71
2021/09/06 09:37:07;;;;;;;7.45;4.60;;;29.70;54.40;;;;;;5038468;28;20053;-71
2021/09/06 09:39:34;;;;;;;9.55;5.30;;;29.40;52.40;;;;;;5037855;28;20060;-71
2021/09/06 09:42:09;;;;;;;8.70;4.90;;;29.00;54.70;;;;;;5038676;28;20028;-71
2021/09/06 09:44:46;;;;;;;8.30;5.25;;;29.30;51.70;;;;;;5038584;28;20025;-71
2021/09/06 09:47:12;;;;;;;8.82;5.07;;;28.00;54.10;;;;;;5037492;28;20112;-71
2021/09/06 09:49:38;;;;;;;8.57;4.95;;;27.60;54.20;;;;;;5038868;28;20160;-71
2021/09/06 09:52:06;;;;;;;10.60;5.80;;;26.90;56.30;;;;;;5038066;28;20026;-71
2021/09/06 09:54:32;;;;;;;8.88;5.10;;;27.80;55.60;;;;;;5037580;28;20029;-71
2021/09/06 09:56:59;;;;;;;7.72;5.03;;;28.90;55.90;;;;;;5038640;28;20100;-72
2021/09/06 09:59:25;;;;;;;8.95;5.82;;;29.20;53.10;;;;;;5038679;28;20021;-72
2021/09/06 10:02:02;;;;;;;8.77;4.80;;;29.10;53.00;;;;;;5037059;28;20308;-72
2021/09/06 10:04:32;;;;;;;11.02;5.28;;;29.40;53.20;;;;;;5050377;28;20031;-72
2021/09/06 10:06:59;;;;;;;8.38;4.55;;;29.40;53.10;;;;;;5043424;28;20578;-71
2021/09/06 10:09:25;;;;;;;8.18;4.85;;;29.80;51.20;;;;;;5037071;28;20025;-71
2021/09/06 10:11:51;;;;;;;7.80;4.82;;;30.40;53.30;;;;;;5038477;28;20107;-71
2021/09/06 10:14:19;;;;;;;7.65;5.10;;;30.70;51.80;;;;;;5037322;28;20022;-72
2021/09/06 10:17:04;;;;;;;9.15;5.03;;;31.20;51.90;;;;;;5035153;28;20079;-71
2021/09/06 10:19:40;;;;;;;9.38;4.85;;;30.50;50.10;;;;;;5034304;28;20357;-69
2021/09/06 10:22:06;;;;;;;8.95;4.70;;;29.50;51.60;;;;;;5044224;28;20037;-70
2021/09/06 10:24:35;;;;;;;8.13;4.55;;;30.10;51.10;;;;;;5036656;28;20485;-71
2021/09/06 10:27:06;;;;;;;7.55;4.90;;;30.50;49.90;;;;;;5058156;28;20369;-71
2021/09/06 10:29:32;;;;;;;10.27;6.05;;;30.40;49.90;;;;;;5036585;28;20034;-71
2021/09/06 10:32:03;;;;;;;8.88;4.47;;;30.30;50.20;;;;;;5037403;28;20384;-71
2021/09/06 10:34:29;;;;;;;10.70;5.57;;;29.40;50.20;;;;;;5038583;28;20100;-71
2021/09/06 10:37:03;;;;;;;9.85;4.75;;;29.40;52.30;;;;;;5037570;28;20048;-72
2021/09/06 10:39:32;;;;;;;9.32;5.43;;;29.00;50.90;;;;;;5034647;28;20048;-71
2021/09/06 10:42:07;;;;;;;8.02;4.85;;;29.50;53.60;;;;;;5036558;28;20419;-71
2021/09/06 10:44:38;;;;;;;9.25;5.20;;;29.10;51.20;;;;;;5038450;28;20041;-71
2021/09/06 10:47:10;;;;;;;11.25;5.13;;;29.10;52.20;;;;;;5036290;28;20026;-71
2021/09/06 10:49:41;;;;;;;7.30;4.30;;;29.40;53.10;;;;;;5037727;28;20048;-71
2021/09/06 10:52:08;;;;;;;8.95;4.90;;;29.90;52.10;;;;;;5038337;28;20151;-71
2021/09/06 10:54:36;;;;;;;9.15;4.82;;;30.90;49.50;;;;;;5052466;28;20028;-71
2021/09/06 10:57:05;;;;;;;8.10;4.97;;;30.80;49.30;;;;;;5046501;28;20033;-71
2021/09/06 10:59:30;;;;;;;8.30;4.20;;;30.90;49.80;;;;;;5037020;28;20030;-71
2021/09/06 11:01:58;;;;;;;8.30;4.93;;;30.70;47.20;;;;;;5035617;28;20039;-70
2021/09/06 11:04:24;;;;;;;8.98;5.30;;;30.40;49.00;;;;;;5037341;28;20083;-71
2021/09/06 11:07:06;;;;;;;10.50;4.40;;;30.30;49.70;;;;;;5037514;28;20033;-72
2021/09/06 11:09:35;;;;;;;7.35;4.80;;;30.80;48.40;;;;;;5036125;28;20026;-72
2021/09/06 11:12:03;;;;;;;10.88;4.50;;;30.40;47.80;;;;;;5037302;28;20021;-72
2021/09/06 11:14:40;;;;;;;9.05;4.80;;;30.30;48.40;;;;;;5036602;28;20387;-71
2021/09/06 11:17:25;;;;;;;7.22;4.40;;;29.60;49.90;;;;;;5035971;28;20029;-73
2021/09/06 11:19:55;;;;;;;8.35;4.65;;;29.10;50.70;;;;;;5035745;28;20036;-71
2021/09/06 11:22:23;;;;;;;9.77;4.70;;;29.80;50.40;;;;;;5036455;28;20029;-71
2021/09/06 11:24:56;;;;;;;8.88;5.05;;;30.30;50.50;;;;;;5035855;28;20095;-72
2021/09/06 11:27:33;;;;;;;8.77;4.78;;;30.20;49.40;;;;;;5036518;28;20026;-72
2021/09/06 11:30:00;;;;;;;7.32;4.70;;;29.90;49.70;;;;;;5037055;28;20291;-71
2021/09/06 11:32:27;;;;;;;8.57;4.63;;;30.40;50.80;;;;;;5036579;28;20029;-72
2021/09/06 11:35:09;;;;;;;10.38;4.65;;;30.40;50.80;;;;;;5036933;28;20022;-71
2021/09/06 11:37:36;;;;;;;6.93;4.55;;;30.50;50.40;;;;;;5045818;28;20094;-71
2021/09/06 11:40:06;;;;;;;7.80;4.68;;;30.80;46.50;;;;;;5044922;28;20051;-71
2021/09/06 11:42:34;;;;;;;11.95;4.97;;;30.70;51.20;;;;;;5036718;28;20057;-71
2021/09/06 11:45:01;;;;;;;6.65;4.32;;;30.20;50.00;;;;;;5037160;28;20349;-72
2021/09/06 11:47:29;;;;;;;8.15;4.60;;;30.20;52.90;;;;;;5036637;28;20403;-71
2021/09/06 11:49:57;;;;;;;7.93;4.53;;;30.70;50.40;;;;;;5035869;28;20021;-71
2021/09/06 11:52:32;;;;;;;8.65;5.05;;;30.90;49.00;;;;;;5053934;28;20021;-71
2021/09/06 11:54:59;;;;;;;6.28;3.83;;;30.60;50.30;;;;;;5055397;28;20029;-71
2021/09/06 11:57:29;;;;;;;7.38;4.55;;;30.20;50.50;;;;;;5040822;28;20033;-70
2021/09/06 11:59:56;;;;;;;7.45;4.20;;;30.10;50.00;;;;;;5036262;28;20318;-72
2021/09/06 12:02:23;;;;;;;7.88;4.55;;;30.10;48.40;;;;;;5030139;28;20099;-69
2021/09/06 12:04:49;;;;;;;7.90;4.90;;;30.40;49.70;;;;;;5036121;28;20055;-70
2021/09/06 12:07:19;;;;;;;7.53;4.85;;;30.30;50.00;;;;;;5036171;28;20159;-71
2021/09/06 12:09:46;;;;;;;9.27;4.63;;;30.20;48.70;;;;;;5034908;28;20025;-70
2021/09/06 12:12:17;;;;;;;7.30;4.57;;;30.20;48.60;;;;;;5035907;28;20029;-70
2021/09/06 12:14:44;;;;;;;22.25;7.60;;;30.00;51.80;;;;;;5036028;28;20025;-70
2021/09/06 12:17:11;;;;;;;8.45;4.35;;;29.60;49.20;;;;;;5036033;28;20037;-71
2021/09/06 12:19:42;;;;;;;7.50;4.63;;;29.60;50.30;;;;;;5036273;28;20406;-70
2021/09/06 12:22:16;;;;;;;7.32;4.55;;;29.30;49.80;;;;;;5037384;28;20100;-71
2021/09/06 12:24:43;;;;;;;7.82;4.70;;;29.20;51.30;;;;;;5032925;28;20029;-71
2021/09/06 12:27:14;;;;;;;9.77;4.90;;;29.20;49.70;;;;;;5032785;28;20513;-71
2021/09/06 12:29:41;;;;;;;8.02;4.63;;;29.40;51.80;;;;;;5035525;28;20041;-71
2021/09/06 12:32:09;;;;;;;7.22;4.25;;;29.70;50.60;;;;;;5048836;28;20028;-71
2021/09/06 12:34:35;;;;;;;6.57;4.18;;;29.90;50.40;;;;;;5035361;28;20442;-71
2021/09/06 12:37:03;;;;;;;6.85;4.22;;;30.10;48.50;;;;;;5035732;28;20124;-71
2021/09/06 12:39:33;;;;;;;8.40;4.55;;;30.20;50.20;;;;;;5030120;28;20111;-71